Wild Rice, North Dakota
Current Conditions -  °F | °C
As of 11:54 AM on Thursday 30 Oct 2014 (Local Time) from KJKJ Reporting Station
Broken Clouds Broken Clouds  
Wind Chill: 29°   Ceiling: 1800
Heat Index: 39°   Visibility: 10mi
Dew Point: 37°   Wind: 23mph
Humidity: 93%   Direction: 360°N
Pressure: 30.25"   Gusts: 26mph
Location:  46.7039°N, 96.8572°W
Report Text: KJKJ 301654Z AUTO 36020G23KT 10SM BKN018 BKN030 04/03 A3025 RMK AO2
Loading
Personal Weather Stations






























Interactive Weather Map
Tropical Storm Tracking
New forecast layout! Learn more

10-Day Weather Forecast

Advertisements
Track Severe Weather on mobile